Time;durP1;ratioP1;P1;durP2;ratioP2;P2;SDS_P1;SDS_P2;PMS_P1;PMS_P2;Temp;Humidity;BMP_temperature;BMP_pressure;BME280_temperature;BME280_humidity;BME280_pressure;Samples;Min_cycle;Max_cycle;Signal;HPM_P1;HPM_P2
2023/04/20 00:01:15;;;;;;;4.72;4.20;;;6.40;97.00;;;;;;5091106;27;20474;-84
2023/04/20 00:03:41;;;;;;;4.00;3.33;;;6.50;97.40;;;;;;5111504;27;20126;-86
2023/04/20 00:06:06;;;;;;;5.15;4.53;;;6.50;97.50;;;;;;5111637;27;20051;-86
2023/04/20 00:08:32;;;;;;;4.28;3.88;;;6.50;97.80;;;;;;5089952;28;20544;-84
2023/04/20 00:10:57;;;;;;;7.40;3.65;;;6.50;98.10;;;;;;5107224;28;20092;-86
2023/04/20 00:13:23;;;;;;;3.55;3.20;;;6.60;98.30;;;;;;5107797;28;20047;-86
2023/04/20 00:15:49;;;;;;;8.32;4.30;;;6.60;98.60;;;;;;5095317;27;20048;-85
2023/04/20 00:18:15;;;;;;;4.82;3.50;;;6.60;98.80;;;;;;5090826;28;20039;-85
2023/04/20 00:20:41;;;;;;;5.03;3.67;;;6.60;98.80;;;;;;5090152;28;20493;-85
2023/04/20 00:23:07;;;;;;;4.03;3.33;;;6.60;99.00;;;;;;5089788;28;20042;-85
2023/04/20 00:25:32;;;;;;;4.15;3.47;;;6.60;99.10;;;;;;5096095;27;20054;-85
2023/04/20 00:27:59;;;;;;;6.10;3.60;;;6.70;99.30;;;;;;5110044;27;20401;-85
2023/04/20 00:30:25;;;;;;;6.32;3.50;;;6.70;99.50;;;;;;5109487;27;20130;-85
2023/04/20 00:32:50;;;;;;;4.82;3.30;;;6.70;99.50;;;;;;5110286;27;20444;-86
2023/04/20 00:35:16;;;;;;;4.82;2.97;;;6.70;99.60;;;;;;5110168;27;20071;-86
2023/04/20 00:37:41;;;;;;;5.38;3.17;;;6.80;99.70;;;;;;5088183;28;20135;-86
2023/04/20 00:40:08;;;;;;;4.00;3.10;;;6.80;99.70;;;;;;5069402;28;20105;-86
2023/04/20 00:42:34;;;;;;;3.00;2.72;;;6.90;99.90;;;;;;5068666;28;20048;-85
2023/04/20 00:44:59;;;;;;;4.05;2.80;;;7.00;99.80;;;;;;5084238;28;20053;-86
2023/04/20 00:47:25;;;;;;;4.43;2.90;;;7.10;99.70;;;;;;5066678;28;20098;-86
2023/04/20 00:49:52;;;;;;;7.03;3.15;;;7.30;99.70;;;;;;5066820;28;20387;-86
2023/04/20 00:52:18;;;;;;;4.38;3.05;;;7.40;99.90;;;;;;5065706;28;20055;-86
2023/04/20 00:54:44;;;;;;;3.47;3.15;;;7.80;99.50;;;;;;5065931;28;20499;-86
2023/04/20 00:57:12;;;;;;;3.55;2.92;;;7.60;99.20;;;;;;5066735;28;20044;-86
2023/04/20 00:59:39;;;;;;;4.43;2.72;;;7.70;99.40;;;;;;5055861;28;20080;-86
2023/04/20 01:02:05;;;;;;;3.22;2.83;;;7.80;99.00;;;;;;5086623;28;20138;-86
2023/04/20 01:04:31;;;;;;;4.93;2.83;;;7.80;98.90;;;;;;5067471;28;20093;-86
2023/04/20 01:07:00;;;;;;;5.03;2.80;;;7.90;98.90;;;;;;5085762;28;20135;-86
2023/04/20 01:09:26;;;;;;;8.07;3.63;;;8.00;98.90;;;;;;5087358;28;20122;-86
2023/04/20 01:11:51;;;;;;;4.70;2.90;;;8.00;98.60;;;;;;5086612;28;20050;-85
2023/04/20 01:14:17;;;;;;;3.78;2.67;;;8.10;98.50;;;;;;5086609;28;20402;-85
2023/04/20 01:16:43;;;;;;;3.05;2.78;;;8.00;98.30;;;;;;5068278;28;20044;-85
2023/04/20 01:19:09;;;;;;;3.83;2.58;;;8.20;98.10;;;;;;5067932;28;20048;-85
2023/04/20 01:21:35;;;;;;;4.18;3.05;;;8.30;98.00;;;;;;5066259;28;20380;-85
2023/04/20 01:24:00;;;;;;;5.00;2.80;;;8.30;97.90;;;;;;5066018;28;20047;-86
2023/04/20 01:26:26;;;;;;;3.45;2.70;;;8.30;97.80;;;;;;5065651;28;20044;-85
2023/04/20 01:28:52;;;;;;;6.32;2.90;;;8.30;97.50;;;;;;5066525;28;20052;-85
2023/04/20 01:31:20;;;;;;;3.15;2.85;;;8.40;97.60;;;;;;5066875;28;20067;-85
2023/04/20 01:33:46;;;;;;;3.95;2.85;;;8.80;97.50;;;;;;5074513;28;20123;-85
2023/04/20 01:36:12;;;;;;;3.85;2.63;;;8.40;97.30;;;;;;5094813;28;20483;-85
2023/04/20 01:38:38;;;;;;;4.50;2.53;;;8.50;97.50;;;;;;5109487;28;20130;-86
2023/04/20 01:41:05;;;;;;;4.22;2.60;;;8.50;97.20;;;;;;5092684;28;20039;-85
2023/04/20 01:43:32;;;;;;;4.80;2.90;;;8.50;97.10;;;;;;5092050;28;20405;-87
2023/04/20 01:45:59;;;;;;;4.45;3.00;;;8.50;97.10;;;;;;5099136;28;20059;-85
2023/04/20 01:48:26;;;;;;;3.47;2.67;;;8.50;97.10;;;;;;5071896;28;20036;-85
2023/04/20 01:50:52;;;;;;;4.15;2.67;;;8.50;97.10;;;;;;5098297;27;20489;-85
2023/04/20 01:53:18;;;;;;;4.63;3.28;;;8.50;97.10;;;;;;5113492;27;20043;-85
2023/04/20 01:55:43;;;;;;;4.15;2.65;;;8.50;97.00;;;;;;5114258;27;20047;-86
2023/04/20 01:58:09;;;;;;;4.38;2.47;;;8.50;96.80;;;;;;5113969;27;20047;-86
2023/04/20 02:00:34;;;;;;;3.42;2.47;;;8.60;96.60;;;;;;5132318;27;20093;-86
2023/04/20 02:03:00;;;;;;;3.38;2.50;;;8.50;96.50;;;;;;5113907;27;20039;-86
2023/04/20 02:05:26;;;;;;;5.88;2.42;;;8.40;96.50;;;;;;5112964;27;20055;-86
2023/04/20 02:07:51;;;;;;;3.30;2.30;;;8.40;96.60;;;;;;5112726;27;20047;-86
2023/04/20 02:10:17;;;;;;;3.78;2.72;;;8.40;96.70;;;;;;5112911;27;20408;-85
2023/04/20 02:12:43;;;;;;;5.32;2.45;;;8.30;96.90;;;;;;5131271;27;20127;-85
2023/04/20 02:15:09;;;;;;;3.45;2.38;;;8.30;97.50;;;;;;5113246;27;20708;-86
2023/04/20 02:17:35;;;;;;;3.30;2.70;;;8.20;97.50;;;;;;5111832;27;20047;-86
2023/04/20 02:20:06;;;;;;;2.67;2.05;;;8.20;97.80;;;;;;5096228;27;20104;-86
2023/04/20 02:22:35;;;;;;;3.67;2.65;;;8.20;98.20;;;;;;5113369;27;20180;-86
2023/04/20 02:25:01;;;;;;;3.05;2.30;;;8.10;98.70;;;;;;5113392;27;20066;-86
2023/04/20 02:27:27;;;;;;;6.32;2.80;;;8.10;98.80;;;;;;5096034;27;20401;-86
2023/04/20 02:29:53;;;;;;;3.35;2.35;;;8.20;99.10;;;;;;5113090;27;20046;-86
2023/04/20 02:32:18;;;;;;;3.33;2.38;;;8.20;99.30;;;;;;5130914;27;20047;-86
2023/04/20 02:34:44;;;;;;;4.72;2.65;;;8.10;99.40;;;;;;5112857;27;20071;-86
2023/04/20 02:37:10;;;;;;;3.10;2.55;;;8.10;99.50;;;;;;5111802;27;20524;-86
2023/04/20 02:39:35;;;;;;;3.78;2.63;;;8.00;99.90;;;;;;5130889;27;20130;-86
2023/04/20 02:42:01;;;;;;;4.80;2.83;;;8.00;99.90;;;;;;5107548;27;20145;-86
2023/04/20 02:44:27;;;;;;;3.75;2.40;;;7.90;99.90;;;;;;5092565;28;20552;-85
2023/04/20 02:46:52;;;;;;;4.57;2.65;;;7.90;99.90;;;;;;5095391;28;20044;-85
2023/04/20 02:49:18;;;;;;;5.55;2.78;;;7.90;99.90;;;;;;5092124;28;20047;-84
2023/04/20 02:51:43;;;;;;;3.97;2.25;;;7.80;99.90;;;;;;5093495;27;20063;-85
2023/04/20 02:54:09;;;;;;;6.40;2.95;;;7.80;99.90;;;;;;5112026;27;20533;-85
2023/04/20 02:56:35;;;;;;;3.00;2.17;;;7.70;99.90;;;;;;5111609;27;20451;-85
2023/04/20 02:59:00;;;;;;;6.75;2.35;;;7.70;99.90;;;;;;5112347;27;20134;-85
2023/04/20 03:01:26;;;;;;;6.32;2.67;;;7.70;99.90;;;;;;5112109;27;20073;-85
2023/04/20 03:03:52;;;;;;;3.30;2.67;;;7.70;99.90;;;;;;5112412;27;20082;-86
2023/04/20 03:06:17;;;;;;;2.92;2.40;;;7.70;99.90;;;;;;5112785;27;20047;-86
2023/04/20 03:08:43;;;;;;;3.85;2.30;;;7.80;99.90;;;;;;5075610;27;20051;-86
2023/04/20 03:11:09;;;;;;;3.35;2.15;;;7.80;99.90;;;;;;5091682;28;20039;-85
2023/04/20 03:13:35;;;;;;;4.70;2.50;;;7.80;99.90;;;;;;5095509;28;20406;-85
2023/04/20 03:16:00;;;;;;;5.18;2.20;;;7.90;99.90;;;;;;5101972;27;20913;-86
2023/04/20 03:18:26;;;;;;;4.47;2.50;;;8.00;99.90;;;;;;5094733;27;20570;-85
2023/04/20 03:20:52;;;;;;;4.15;2.45;;;8.00;99.90;;;;;;5112127;27;20043;-86
2023/04/20 03:23:18;;;;;;;2.80;2.42;;;8.00;99.80;;;;;;5128517;27;20130;-85
2023/04/20 03:25:45;;;;;;;8.35;2.85;;;8.30;99.50;;;;;;5111547;27;20117;-85
2023/04/20 03:28:10;;;;;;;6.97;3.03;;;8.10;99.10;;;;;;5093476;27;20501;-85
2023/04/20 03:30:36;;;;;;;3.75;2.38;;;8.20;98.90;;;;;;5111429;27;20054;-86
2023/04/20 03:33:02;;;;;;;3.70;2.33;;;8.20;98.70;;;;;;5111971;27;20044;-86
2023/04/20 03:35:27;;;;;;;5.93;2.40;;;8.20;98.50;;;;;;5111958;27;20043;-85
2023/04/20 03:37:53;;;;;;;2.90;2.45;;;8.20;98.20;;;;;;5094564;27;20166;-85
2023/04/20 03:40:19;;;;;;;3.58;2.50;;;8.20;97.90;;;;;;5094321;27;20043;-86
2023/04/20 03:42:44;;;;;;;3.05;2.10;;;8.20;97.70;;;;;;5078775;28;20075;-86
2023/04/20 03:45:11;;;;;;;8.75;3.08;;;8.30;96.60;;;;;;5073890;28;20043;-86
2023/04/20 03:47:36;;;;;;;2.97;2.22;;;8.30;96.30;;;;;;5091711;28;20062;-86
2023/04/20 03:50:03;;;;;;;3.85;2.25;;;8.30;95.60;;;;;;5101490;27;20054;-85
2023/04/20 03:52:28;;;;;;;3.63;2.50;;;8.40;95.20;;;;;;5111737;27;20491;-87
2023/04/20 03:54:54;;;;;;;3.08;2.20;;;8.40;94.70;;;;;;5094589;27;20172;-85
2023/04/20 03:57:20;;;;;;;3.28;2.35;;;8.40;94.40;;;;;;5096756;28;20093;-86
2023/04/20 03:59:45;;;;;;;4.47;2.55;;;8.40;94.40;;;;;;5090864;28;20052;-86
2023/04/20 04:02:12;;;;;;;3.30;2.25;;;8.40;94.60;;;;;;5109015;28;20040;-86
2023/04/20 04:04:39;;;;;;;3.13;2.33;;;8.70;95.50;;;;;;5085538;27;20039;-87
2023/04/20 04:07:06;;;;;;;5.35;2.78;;;8.30;96.40;;;;;;5110907;27;20123;-87
2023/04/20 04:09:31;;;;;;;3.60;2.70;;;8.20;97.30;;;;;;5112321;27;20076;-86
2023/04/20 04:11:57;;;;;;;6.57;2.80;;;8.20;98.30;;;;;;5091564;28;20247;-87
2023/04/20 04:14:22;;;;;;;4.00;2.67;;;8.10;99.10;;;;;;5090488;28;20065;-86
2023/04/20 04:16:48;;;;;;;3.45;2.58;;;8.00;99.80;;;;;;5090349;28;20043;-86
2023/04/20 04:19:15;;;;;;;4.22;2.92;;;7.80;99.90;;;;;;5103261;27;20043;-84
2023/04/20 04:21:41;;;;;;;3.53;2.60;;;7.80;99.90;;;;;;5094577;27;20129;-84
2023/04/20 04:24:07;;;;;;;7.07;5.10;;;7.70;99.90;;;;;;5110626;27;20122;-85
2023/04/20 04:26:32;;;;;;;2.80;2.47;;;7.60;99.90;;;;;;5110504;27;20074;-83
2023/04/20 04:28:58;;;;;;;5.15;3.05;;;7.50;99.90;;;;;;5110423;27;20428;-84
2023/04/20 04:31:24;;;;;;;5.07;3.38;;;7.50;99.90;;;;;;5110329;27;20078;-84
2023/04/20 04:33:50;;;;;;;4.78;3.22;;;7.40;99.90;;;;;;5098752;28;20097;-84
2023/04/20 04:36:16;;;;;;;5.03;2.90;;;7.30;99.90;;;;;;5074090;28;20052;-86
2023/04/20 04:38:43;;;;;;;4.25;2.70;;;7.20;99.90;;;;;;5090459;28;20113;-86
2023/04/20 04:41:11;;;;;;;7.93;3.33;;;7.10;99.90;;;;;;5101032;27;20508;-86
2023/04/20 04:43:38;;;;;;;3.33;3.03;;;7.00;99.90;;;;;;5110769;27;20051;-85
2023/04/20 04:46:12;;;;;;;5.82;2.95;;;6.90;99.90;;;;;;5081565;28;20092;-86
2023/04/20 04:48:39;;;;;;;3.47;3.15;;;6.80;99.90;;;;;;5105193;27;20035;-85
2023/04/20 04:51:05;;;;;;;4.97;3.20;;;6.80;99.90;;;;;;5104403;28;20916;-86
2023/04/20 04:53:31;;;;;;;3.95;2.65;;;6.70;99.90;;;;;;5128323;27;20122;-86
2023/04/20 04:55:57;;;;;;;3.90;2.90;;;6.80;99.90;;;;;;5110971;27;20050;-87
2023/04/20 04:58:25;;;;;;;3.45;3.13;;;6.70;99.90;;;;;;5127322;27;20047;-86
2023/04/20 05:00:51;;;;;;;3.65;2.75;;;6.70;99.90;;;;;;5109814;27;20409;-86
2023/04/20 05:03:16;;;;;;;4.95;3.15;;;6.70;99.90;;;;;;5110568;27;20047;-86
2023/04/20 05:05:42;;;;;;;4.95;3.05;;;6.70;99.90;;;;;;5111246;27;20054;-86
2023/04/20 05:08:08;;;;;;;4.65;3.10;;;6.70;99.90;;;;;;5109868;28;20404;-86
2023/04/20 05:10:33;;;;;;;3.85;3.15;;;6.70;99.90;;;;;;5110199;27;20077;-87
2023/04/20 05:12:59;;;;;;;5.60;3.45;;;6.80;99.90;;;;;;5109562;27;20066;-85
2023/04/20 05:15:25;;;;;;;4.45;3.17;;;6.80;99.90;;;;;;5088932;28;20045;-85
2023/04/20 05:17:51;;;;;;;3.20;2.83;;;6.80;99.90;;;;;;5084461;28;20149;-86
2023/04/20 05:20:17;;;;;;;4.30;2.95;;;6.80;99.90;;;;;;5100883;28;20182;-87
2023/04/20 05:22:42;;;;;;;5.15;2.88;;;6.80;99.90;;;;;;5099490;28;20039;-83
2023/04/20 05:25:08;;;;;;;5.63;2.92;;;6.80;99.90;;;;;;5120604;27;20039;-82
2023/04/20 05:27:34;;;;;;;3.72;2.92;;;6.80;99.90;;;;;;5098262;28;20056;-82
2023/04/20 05:30:00;;;;;;;6.50;3.30;;;6.90;99.90;;;;;;5102094;27;20043;-82
2023/04/20 05:32:27;;;;;;;3.38;3.08;;;6.90;99.90;;;;;;5113099;27;20137;-82
2023/04/20 05:34:55;;;;;;;4.40;2.67;;;6.90;99.90;;;;;;5100266;28;20035;-84
2023/04/20 05:37:20;;;;;;;4.75;3.10;;;6.90;99.90;;;;;;5079729;28;20094;-82
2023/04/20 05:39:46;;;;;;;3.53;2.80;;;7.30;99.90;;;;;;5069656;28;20060;-82
2023/04/20 05:42:12;;;;;;;4.95;2.90;;;6.90;99.90;;;;;;5069953;28;20044;-82
2023/04/20 05:44:39;;;;;;;3.38;2.97;;;6.90;99.90;;;;;;5070187;28;20126;-81
2023/04/20 05:47:07;;;;;;;3.83;2.90;;;6.90;99.90;;;;;;5069952;28;20052;-81
2023/04/20 05:49:33;;;;;;;3.47;2.83;;;6.90;99.90;;;;;;5079911;28;20044;-81
2023/04/20 05:52:00;;;;;;;3.55;2.95;;;6.90;99.90;;;;;;5085502;28;20047;-81
2023/04/20 05:54:29;;;;;;;4.05;2.95;;;6.90;99.90;;;;;;5069521;28;20465;-81
2023/04/20 05:56:56;;;;;;;5.95;3.22;;;6.90;99.90;;;;;;5069901;28;20102;-81
2023/04/20 05:59:23;;;;;;;4.22;3.35;;;6.80;99.90;;;;;;5072585;28;20040;-83
2023/04/20 06:01:48;;;;;;;3.95;3.22;;;6.90;99.90;;;;;;5089747;28;20047;-82
2023/04/20 06:04:14;;;;;;;7.38;2.95;;;6.90;99.90;;;;;;5091267;28;20052;-81
2023/04/20 06:06:40;;;;;;;4.65;2.65;;;6.90;99.90;;;;;;5089055;28;20044;-84
2023/04/20 06:09:05;;;;;;;3.30;2.92;;;6.80;99.90;;;;;;5087957;28;20039;-83
2023/04/20 06:11:31;;;;;;;6.60;3.00;;;6.80;99.90;;;;;;5088406;28;20074;-84
2023/04/20 06:13:57;;;;;;;4.30;2.75;;;6.80;99.90;;;;;;5088422;28;20032;-86
2023/04/20 06:16:22;;;;;;;4.35;3.20;;;6.80;99.90;;;;;;5072968;28;20048;-84
2023/04/20 06:18:48;;;;;;;6.05;3.63;;;6.70;99.90;;;;;;5089244;28;20055;-86
2023/04/20 06:21:16;;;;;;;3.83;3.03;;;6.60;99.90;;;;;;5089346;28;20052;-85
2023/04/20 06:23:43;;;;;;;5.00;3.38;;;6.60;99.90;;;;;;5087192;28;20044;-86
2023/04/20 06:26:09;;;;;;;3.30;2.78;;;6.60;99.90;;;;;;5088975;28;20048;-87
2023/04/20 06:28:36;;;;;;;5.70;3.45;;;6.50;99.90;;;;;;5088960;28;20048;-86
2023/04/20 06:31:03;;;;;;;4.68;3.33;;;6.40;99.90;;;;;;5090510;28;20101;-86
2023/04/20 06:33:29;;;;;;;4.85;3.35;;;6.30;99.90;;;;;;5090003;28;20097;-85
2023/04/20 06:35:55;;;;;;;4.70;3.38;;;6.10;99.90;;;;;;5096606;27;20438;-86
2023/04/20 06:38:24;;;;;;;5.60;3.80;;;6.00;99.90;;;;;;5110604;27;20085;-88
2023/04/20 06:40:49;;;;;;;4.85;3.30;;;5.90;99.90;;;;;;5110539;28;20039;-87
2023/04/20 06:43:18;;;;;;;5.68;3.60;;;5.80;99.90;;;;;;5092735;28;20065;-86
2023/04/20 06:45:44;;;;;;;4.38;3.47;;;5.70;99.90;;;;;;5093010;28;20051;-86
2023/04/20 06:48:10;;;;;;;5.28;3.88;;;5.70;99.90;;;;;;5105154;27;20065;-86
2023/04/20 06:50:38;;;;;;;4.22;3.83;;;5.60;99.90;;;;;;5113197;27;20043;-86
2023/04/20 06:53:05;;;;;;;6.38;4.10;;;5.60;99.90;;;;;;5111079;27;20039;-86
2023/04/20 06:55:31;;;;;;;5.55;3.45;;;5.60;99.90;;;;;;5093734;28;20042;-85
2023/04/20 06:57:56;;;;;;;4.88;3.88;;;5.60;99.90;;;;;;5100466;27;20036;-85
2023/04/20 07:00:22;;;;;;;5.38;3.60;;;5.50;99.90;;;;;;5112656;27;20043;-86
2023/04/20 07:02:49;;;;;;;5.22;3.63;;;5.60;99.90;;;;;;5112068;27;20050;-86
2023/04/20 07:05:16;;;;;;;5.90;4.18;;;5.60;99.90;;;;;;5111978;27;20047;-86
2023/04/20 07:07:42;;;;;;;5.18;3.60;;;5.60;99.90;;;;;;5112667;27;20039;-86
2023/04/20 07:10:09;;;;;;;5.45;3.53;;;5.50;99.90;;;;;;5095790;27;20047;-87
2023/04/20 07:12:35;;;;;;;5.13;3.83;;;5.50;99.90;;;;;;5095730;27;20039;-86
2023/04/20 07:15:08;;;;;;;6.82;3.85;;;5.50;99.90;;;;;;5093888;27;20040;-86
2023/04/20 07:17:34;;;;;;;6.07;3.70;;;5.50;99.90;;;;;;5110663;27;20049;-85
2023/04/20 07:20:07;;;;;;;5.10;4.45;;;5.50;99.90;;;;;;5094496;27;20032;-86
2023/04/20 07:22:33;;;;;;;6.50;4.40;;;5.50;99.90;;;;;;5110626;27;20346;-85
2023/04/20 07:25:09;;;;;;;7.75;4.40;;;5.60;99.90;;;;;;5098870;28;20043;-85
2023/04/20 07:27:58;;;;;;;5.80;3.70;;;5.60;99.90;;;;;;5090611;28;20055;-85
2023/04/20 07:30:24;;;;;;;6.28;4.97;;;5.70;99.90;;;;;;5090562;28;20040;-85
2023/04/20 07:32:51;;;;;;;9.63;5.00;;;5.70;99.90;;;;;;5107555;27;20069;-86
2023/04/20 07:35:23;;;;;;;6.22;4.47;;;6.30;99.90;;;;;;5095171;27;20047;-85
2023/04/20 07:37:51;;;;;;;5.60;4.03;;;5.90;99.90;;;;;;5112265;27;20055;-85
2023/04/20 07:40:17;;;;;;;12.45;4.70;;;5.90;99.90;;;;;;5098879;28;20074;-86
2023/04/20 07:42:43;;;;;;;5.65;4.25;;;6.00;99.90;;;;;;5074502;28;20409;-85
2023/04/20 07:45:09;;;;;;;6.75;4.70;;;6.10;99.90;;;;;;5110867;27;20046;-85
2023/04/20 07:47:36;;;;;;;7.95;4.72;;;6.10;99.90;;;;;;5112441;27;20043;-85
2023/04/20 07:50:03;;;;;;;8.20;4.57;;;6.10;99.90;;;;;;5111147;27;20401;-85
2023/04/20 07:52:28;;;;;;;6.63;4.38;;;6.20;99.90;;;;;;5111365;27;20047;-86
2023/04/20 07:54:58;;;;;;;7.07;5.30;;;6.20;99.90;;;;;;5094453;27;20131;-86
2023/04/20 07:57:27;;;;;;;7.47;4.78;;;6.20;99.90;;;;;;5111507;27;20043;-86
2023/04/20 07:59:56;;;;;;;7.03;4.75;;;6.30;99.90;;;;;;5093794;27;20077;-85
2023/04/20 08:02:21;;;;;;;6.32;4.45;;;6.30;99.90;;;;;;5109358;27;20513;-83
2023/04/20 08:04:48;;;;;;;8.02;4.32;;;6.40;99.90;;;;;;5092925;27;20048;-85
2023/04/20 08:07:14;;;;;;;8.43;5.07;;;6.60;99.90;;;;;;5109867;27;20102;-84
2023/04/20 08:09:40;;;;;;;8.68;4.60;;;6.70;99.90;;;;;;5090531;27;20039;-85
2023/04/20 08:12:06;;;;;;;6.18;4.40;;;6.90;99.90;;;;;;5089124;28;20516;-85
2023/04/20 08:14:32;;;;;;;7.25;4.40;;;7.20;99.90;;;;;;5091288;28;20565;-86
2023/04/20 08:16:58;;;;;;;7.22;5.05;;;7.40;99.90;;;;;;5083720;27;20135;-86
2023/04/20 08:19:24;;;;;;;7.65;4.63;;;7.50;99.90;;;;;;5096368;28;20132;-86
2023/04/20 08:21:57;;;;;;;8.52;5.32;;;7.50;99.90;;;;;;5101675;27;20039;-86
2023/04/20 08:24:26;;;;;;;7.40;4.95;;;7.50;99.90;;;;;;5105901;27;20043;-87
2023/04/20 08:26:52;;;;;;;7.43;4.80;;;7.70;99.90;;;;;;5110700;27;20224;-87
2023/04/20 08:29:17;;;;;;;9.68;5.22;;;7.40;99.90;;;;;;5110131;27;20095;-86
2023/04/20 08:31:43;;;;;;;7.45;5.18;;;7.40;99.90;;;;;;5109865;27;20043;-86
2023/04/20 08:34:08;;;;;;;7.28;5.10;;;7.50;99.90;;;;;;5111356;27;20046;-85
2023/04/20 08:36:35;;;;;;;6.75;5.00;;;7.50;99.90;;;;;;5110967;27;20485;-85
2023/04/20 08:39:12;;;;;;;8.57;5.32;;;7.60;99.90;;;;;;5109445;27;20047;-86
2023/04/20 08:41:38;;;;;;;6.30;5.03;;;7.30;99.90;;;;;;5110685;27;20100;-85
2023/04/20 08:44:04;;;;;;;7.85;5.32;;;7.30;99.90;;;;;;5110699;27;20043;-85
2023/04/20 08:46:30;;;;;;;7.60;5.82;;;7.30;99.90;;;;;;5109218;27;20058;-85
2023/04/20 08:48:56;;;;;;;7.32;5.53;;;7.30;99.90;;;;;;5093983;27;20660;-85
2023/04/20 08:51:23;;;;;;;6.35;5.18;;;7.30;99.90;;;;;;5110711;27;20039;-85
2023/04/20 08:53:48;;;;;;;10.55;5.20;;;7.40;99.90;;;;;;5090864;28;20050;-85
2023/04/20 08:56:14;;;;;;;7.30;5.30;;;7.40;99.90;;;;;;5105769;27;20095;-86
2023/04/20 08:58:41;;;;;;;7.00;5.22;;;7.40;99.90;;;;;;5109659;27;20039;-86
2023/04/20 09:01:10;;;;;;;8.77;5.30;;;7.40;99.90;;;;;;5090320;28;20043;-86
2023/04/20 09:03:38;;;;;;;9.65;6.15;;;7.50;99.90;;;;;;5078577;27;20072;-85
2023/04/20 09:06:15;;;;;;;9.55;5.53;;;7.50;99.90;;;;;;5109069;27;20066;-85
2023/04/20 09:08:41;;;;;;;7.90;5.82;;;7.80;99.90;;;;;;5092808;27;20100;-85
2023/04/20 09:11:26;;;;;;;6.68;5.38;;;7.50;99.90;;;;;;5111363;28;20142;-84
2023/04/20 09:13:58;;;;;;;7.00;5.38;;;7.50;99.90;;;;;;5110763;28;20035;-85
2023/04/20 09:16:24;;;;;;;7.82;5.95;;;7.50;99.90;;;;;;5091958;27;20055;-85
2023/04/20 09:18:55;;;;;;;8.85;5.93;;;7.50;99.90;;;;;;5128615;27;20096;-85
2023/04/20 09:21:22;;;;;;;8.80;6.03;;;7.60;99.90;;;;;;5109570;28;20436;-85
2023/04/20 09:24:07;;;;;;;7.90;5.65;;;7.60;99.90;;;;;;5092606;28;20196;-84
2023/04/20 09:26:41;;;;;;;10.07;5.63;;;8.00;99.90;;;;;;5093651;28;20059;-84
2023/04/20 09:29:22;;;;;;;8.73;6.28;;;7.80;99.90;;;;;;5093371;28;20104;-83
2023/04/20 09:31:49;;;;;;;10.73;6.20;;;7.90;99.90;;;;;;5110327;28;20501;-83
2023/04/20 09:34:18;;;;;;;6.63;5.82;;;8.00;99.90;;;;;;5124640;27;20907;-83
2023/04/20 09:36:53;;;;;;;9.75;5.80;;;8.10;99.90;;;;;;5127060;27;20413;-83
2023/04/20 09:39:23;;;;;;;8.13;6.40;;;8.10;99.90;;;;;;5125728;28;20055;-84
2023/04/20 09:41:51;;;;;;;7.90;5.60;;;8.30;99.90;;;;;;5101055;28;20131;-84
2023/04/20 09:44:18;;;;;;;9.02;6.35;;;8.20;99.90;;;;;;5127711;28;20472;-84
2023/04/20 09:46:44;;;;;;;10.45;7.13;;;8.20;99.90;;;;;;5123795;27;20678;-83
2023/04/20 09:49:13;;;;;;;11.98;7.97;;;8.30;99.90;;;;;;5127995;27;20417;-84
2023/04/20 09:51:43;;;;;;;12.82;8.93;;;8.40;99.90;;;;;;5128212;28;20179;-86
2023/04/20 09:54:10;;;;;;;12.48;11.07;;;8.40;99.90;;;;;;5109305;28;20118;-85
2023/04/20 09:56:37;;;;;;;7.93;6.95;;;8.50;99.90;;;;;;5091553;28;20493;-86
2023/04/20 09:59:03;;;;;;;9.25;7.78;;;8.70;99.90;;;;;;5084874;28;20125;-87
2023/04/20 10:01:34;;;;;;;10.45;9.40;;;8.70;99.90;;;;;;5072528;28;20130;-86
2023/04/20 10:04:02;;;;;;;9.77;8.20;;;8.80;99.90;;;;;;5105968;28;20043;-87
2023/04/20 10:06:33;;;;;;;9.55;8.00;;;8.90;99.90;;;;;;5109064;28;20150;-87
2023/04/20 10:09:02;;;;;;;11.80;7.65;;;9.10;99.90;;;;;;5109108;27;20359;-87
2023/04/20 10:11:28;;;;;;;7.95;6.75;;;8.80;99.90;;;;;;5109018;27;20772;-87
2023/04/20 10:13:54;;;;;;;10.35;7.60;;;8.70;99.90;;;;;;5111886;27;20084;-86
2023/04/20 10:16:20;;;;;;;8.30;7.45;;;8.60;99.90;;;;;;5113074;27;20047;-87
2023/04/20 10:19:03;;;;;;;10.68;8.20;;;8.60;99.90;;;;;;5091081;27;20047;-86
2023/04/20 10:21:33;;;;;;;;;;;9.00;99.90;;;;;;5088126;27;20056;-86
2023/04/20 10:24:02;;;;;;;7.90;6.88;;;8.60;99.90;;;;;;5114023;27;20339;-87
2023/04/20 10:26:41;;;;;;;9.38;6.45;;;8.60;99.90;;;;;;5112869;27;20169;-86
2023/04/20 10:29:07;;;;;;;14.68;10.38;;;8.80;99.90;;;;;;5095261;27;20043;-86
2023/04/20 10:31:40;;;;;;;9.18;7.03;;;9.20;99.90;;;;;;5129032;27;20528;-84
2023/04/20 10:34:07;;;;;;;9.77;7.68;;;9.60;99.90;;;;;;5092791;27;20079;-86
2023/04/20 10:36:37;;;;;;;10.00;6.90;;;10.10;99.90;;;;;;5094473;27;20582;-86
2023/04/20 10:39:17;;;;;;;10.25;7.63;;;9.90;99.90;;;;;;5113312;27;20497;-87
2023/04/20 10:41:53;;;;;;;9.15;7.18;;;9.90;99.90;;;;;;5113760;27;20074;-85
2023/04/20 10:44:19;;;;;;;8.75;6.80;;;9.90;99.90;;;;;;5103524;27;20043;-85
2023/04/20 10:46:49;;;;;;;8.95;6.72;;;9.90;99.90;;;;;;5112225;27;21122;-86
2023/04/20 10:49:15;;;;;;;7.10;6.40;;;9.80;99.90;;;;;;5112786;27;20125;-86
2023/04/20 10:52:10;;;;;;;8.40;6.60;;;10.20;99.90;;;;;;5112167;27;20057;-83
2023/04/20 10:54:38;;;;;;;9.75;7.22;;;9.40;99.90;;;;;;5109018;28;20044;-83
2023/04/20 10:57:04;;;;;;;8.40;6.95;;;9.30;99.90;;;;;;5101542;27;20520;-83
2023/04/20 10:59:30;;;;;;;8.15;7.00;;;9.30;99.90;;;;;;5111896;27;20353;-83
2023/04/20 11:01:55;;;;;;;9.07;8.07;;;9.40;99.90;;;;;;5113052;27;20493;-84
2023/04/20 11:04:31;;;;;;;10.68;8.02;;;9.70;99.90;;;;;;5111496;27;20147;-83
2023/04/20 11:07:05;;;;;;;9.32;7.97;;;9.90;99.90;;;;;;5098601;28;20048;-82
2023/04/20 11:09:33;;;;;;;9.77;8.77;;;10.50;99.90;;;;;;5093476;28;20480;-83
2023/04/20 11:12:00;;;;;;;12.32;10.52;;;10.40;99.90;;;;;;5091763;28;20055;-83
2023/04/20 11:14:27;;;;;;;9.73;8.68;;;10.60;99.90;;;;;;5091583;27;20397;-83
2023/04/20 11:16:56;;;;;;;65.55;42.17;;;10.70;99.90;;;;;;5095184;27;20087;-83
2023/04/20 11:19:30;;;;;;;13.02;10.77;;;10.90;99.90;;;;;;5111577;27;20095;-82
2023/04/20 11:21:58;;;;;;;13.18;11.85;;;10.80;99.90;;;;;;5130906;27;20058;-82
2023/04/20 11:24:26;;;;;;;12.45;10.38;;;10.70;99.90;;;;;;5129661;27;20195;-84
2023/04/20 11:26:56;;;;;;;12.13;10.38;;;10.70;99.90;;;;;;5131069;27;20096;-81
2023/04/20 11:29:36;;;;;;;13.25;9.93;;;10.70;99.90;;;;;;5119647;27;20044;-81
2023/04/20 11:32:11;;;;;;;10.48;9.43;;;10.80;99.90;;;;;;5109720;28;20039;-82
2023/04/20 11:34:38;;;;;;;10.02;8.70;;;11.00;99.90;;;;;;5102160;27;20069;-83
2023/04/20 11:37:09;;;;;;;10.93;8.48;;;11.10;99.90;;;;;;5096411;27;20049;-81
2023/04/20 11:39:35;;;;;;;10.07;8.52;;;11.10;99.90;;;;;;5111298;27;20510;-81
2023/04/20 11:42:02;;;;;;;9.43;8.13;;;11.00;99.90;;;;;;5111233;27;20043;-81
2023/04/20 11:44:28;;;;;;;12.43;9.27;;;11.10;99.90;;;;;;5131124;27;20134;-81
2023/04/20 11:46:57;;;;;;;11.73;8.70;;;11.00;99.90;;;;;;5120673;27;20118;-82
2023/04/20 11:49:24;;;;;;;10.18;8.20;;;10.90;99.90;;;;;;5110231;27;20067;-81
2023/04/20 11:51:51;;;;;;;10.60;7.95;;;11.10;99.90;;;;;;5113570;27;20047;-81
2023/04/20 11:54:21;;;;;;;11.65;8.50;;;11.10;99.90;;;;;;5115472;27;20126;-82
2023/04/20 11:56:47;;;;;;;10.90;8.43;;;11.10;99.90;;;;;;5135009;27;20039;-82
2023/04/20 11:59:14;;;;;;;9.60;8.52;;;11.00;99.90;;;;;;5117133;27;20186;-81
2023/04/20 12:01:40;;;;;;;10.02;8.40;;;11.10;99.90;;;;;;5113856;27;20943;-81
2023/04/20 12:04:05;;;;;;;9.93;8.48;;;11.00;99.90;;;;;;5136596;27;20040;-81
2023/04/20 12:06:31;;;;;;;10.82;8.43;;;11.20;99.90;;;;;;5115149;27;20050;-80
2023/04/20 12:08:57;;;;;;;11.05;7.90;;;11.30;99.90;;;;;;5095295;27;20046;-80
2023/04/20 12:11:23;;;;;;;9.30;7.97;;;11.40;99.90;;;;;;5129404;27;20043;-80
2023/04/20 12:13:49;;;;;;;9.48;7.50;;;11.50;99.90;;;;;;5112417;27;20100;-80
2023/04/20 12:16:15;;;;;;;7.90;7.10;;;11.50;99.90;;;;;;5110692;27;20043;-80
2023/04/20 12:18:41;;;;;;;9.00;7.25;;;11.80;99.90;;;;;;5101241;28;20075;-80
2023/04/20 12:21:06;;;;;;;9.73;7.50;;;12.00;99.90;;;;;;5103081;27;20095;-81
2023/04/20 12:23:32;;;;;;;11.05;7.40;;;12.10;99.90;;;;;;5110927;27;20104;-81
2023/04/20 12:25:58;;;;;;;7.40;6.65;;;12.00;99.90;;;;;;5111047;27;20043;-80
2023/04/20 12:28:24;;;;;;;8.68;7.82;;;12.00;99.90;;;;;;5129853;27;20054;-81
2023/04/20 12:30:49;;;;;;;8.23;7.32;;;11.70;99.90;;;;;;5094200;27;20459;-81
2023/04/20 12:33:15;;;;;;;9.52;7.30;;;11.50;99.90;;;;;;5092037;27;20046;-81
2023/04/20 12:35:42;;;;;;;9.27;8.27;;;11.10;99.90;;;;;;5105187;27;20080;-80
2023/04/20 12:38:07;;;;;;;9.40;7.95;;;10.90;99.90;;;;;;5123355;27;20126;-80
2023/04/20 12:40:34;;;;;;;10.10;7.95;;;11.00;99.90;;;;;;5089562;28;20130;-80
2023/04/20 12:43:00;;;;;;;9.60;8.48;;;11.00;99.90;;;;;;5071990;28;20047;-82
2023/04/20 12:45:25;;;;;;;8.35;7.55;;;11.10;99.90;;;;;;5071319;28;20044;-80
2023/04/20 12:47:51;;;;;;;8.85;7.78;;;11.00;99.90;;;;;;5090116;28;20040;-80
2023/04/20 12:50:16;;;;;;;10.32;8.35;;;11.00;99.90;;;;;;5108212;28;20046;-79
2023/04/20 12:52:42;;;;;;;9.30;7.90;;;11.00;99.90;;;;;;5092201;28;20211;-81
2023/04/20 12:55:08;;;;;;;8.52;7.72;;;11.00;99.90;;;;;;5110488;28;20129;-80